sensor_id;sensor_type;location;lat;lon;timestamp;pressure;altitude;pressure_sealevel;temperature;humidity
43818;BME280;29868;47.360;18.984;2022-12-29T00:01:24;101007.31;;;-1.86;100.00
43818;BME280;29868;47.360;18.984;2022-12-29T00:03:49;101003.91;;;-1.87;100.00
43818;BME280;29868;47.360;18.984;2022-12-29T00:06:15;101014.41;;;-1.82;100.00
43818;BME280;29868;47.360;18.984;2022-12-29T00:08:40;101014.81;;;-2.00;100.00
43818;BME280;29868;47.360;18.984;2022-12-29T00:11:14;101013.69;;;-2.03;100.00
43818;BME280;29868;47.360;18.984;2022-12-29T00:13:40;101014.94;;;-1.98;100.00
43818;BME280;29868;47.360;18.984;2022-12-29T00:16:26;101008.94;;;-1.99;100.00
43818;BME280;29868;47.360;18.984;2022-12-29T00:18:51;100999.53;;;-2.00;100.00
43818;BME280;29868;47.360;18.984;2022-12-29T00:21:18;101006.44;;;-1.87;100.00
43818;BME280;29868;47.360;18.984;2022-12-29T00:24:02;100997.09;;;-1.98;100.00
43818;BME280;29868;47.360;18.984;2022-12-29T00:26:55;101000.16;;;-2.14;100.00
43818;BME280;29868;47.360;18.984;2022-12-29T00:29:40;101010.00;;;-2.18;100.00
43818;BME280;29868;47.360;18.984;2022-12-29T00:32:24;101006.06;;;-2.25;100.00
43818;BME280;29868;47.360;18.984;2022-12-29T00:35:10;101009.25;;;-2.28;100.00
43818;BME280;29868;47.360;18.984;2022-12-29T00:37:39;101011.81;;;-2.28;100.00
43818;BME280;29868;47.360;18.984;2022-12-29T00:40:24;101010.00;;;-2.18;100.00
43818;BME280;29868;47.360;18.984;2022-12-29T00:43:08;101003.13;;;-2.19;100.00
43818;BME280;29868;47.360;18.984;2022-12-29T00:45:52;100998.63;;;-2.12;100.00
43818;BME280;29868;47.360;18.984;2022-12-29T00:48:17;101000.50;;;-2.09;100.00
43818;BME280;29868;47.360;18.984;2022-12-29T00:51:03;101000.63;;;-2.08;100.00
43818;BME280;29868;47.360;18.984;2022-12-29T00:53:28;101005.19;;;-2.04;100.00
43818;BME280;29868;47.360;18.984;2022-12-29T00:55:54;101009.38;;;-2.04;100.00
43818;BME280;29868;47.360;18.984;2022-12-29T00:58:19;101009.59;;;-2.01;100.00
43818;BME280;29868;47.360;18.984;2022-12-29T01:00:44;101008.56;;;-1.81;100.00
43818;BME280;29868;47.360;18.984;2022-12-29T01:03:10;101009.16;;;-1.74;100.00
43818;BME280;29868;47.360;18.984;2022-12-29T01:05:38;101007.00;;;-1.79;100.00
43818;BME280;29868;47.360;18.984;2022-12-29T01:08:03;101010.69;;;-1.76;100.00
43818;BME280;29868;47.360;18.984;2022-12-29T01:10:29;101004.47;;;-1.79;100.00
43818;BME280;29868;47.360;18.984;2022-12-29T01:12:54;100994.72;;;-1.85;100.00
43818;BME280;29868;47.360;18.984;2022-12-29T01:15:20;101000.22;;;-1.90;100.00
43818;BME280;29868;47.360;18.984;2022-12-29T01:17:46;101000.66;;;-1.96;100.00
43818;BME280;29868;47.360;18.984;2022-12-29T01:20:12;101004.97;;;-1.95;100.00
43818;BME280;29868;47.360;18.984;2022-12-29T01:22:38;101002.19;;;-1.98;100.00
43818;BME280;29868;47.360;18.984;2022-12-29T01:25:04;101003.81;;;-2.10;100.00
43818;BME280;29868;47.360;18.984;2022-12-29T01:27:30;101005.72;;;-2.08;100.00
43818;BME280;29868;47.360;18.984;2022-12-29T01:29:55;100999.75;;;-2.08;100.00
43818;BME280;29868;47.360;18.984;2022-12-29T01:32:21;100987.75;;;-2.09;100.00
43818;BME280;29868;47.360;18.984;2022-12-29T01:34:46;100986.09;;;-2.09;100.00
43818;BME280;29868;47.360;18.984;2022-12-29T01:37:12;100984.53;;;-2.18;100.00
43818;BME280;29868;47.360;18.984;2022-12-29T01:39:37;100994.81;;;-2.17;100.00
43818;BME280;29868;47.360;18.984;2022-12-29T01:42:03;100986.88;;;-2.10;100.00
43818;BME280;29868;47.360;18.984;2022-12-29T01:47:22;100984.91;;;-2.02;100.00
43818;BME280;29868;47.360;18.984;2022-12-29T01:49:53;100992.56;;;-2.02;100.00
43818;BME280;29868;47.360;18.984;2022-12-29T01:52:22;100988.91;;;-1.94;100.00
43818;BME280;29868;47.360;18.984;2022-12-29T01:54:50;100991.88;;;-1.78;100.00
43818;BME280;29868;47.360;18.984;2022-12-29T01:57:21;100981.53;;;-1.91;100.00
43818;BME280;29868;47.360;18.984;2022-12-29T02:00:09;100985.41;;;-1.96;100.00
43818;BME280;29868;47.360;18.984;2022-12-29T02:02:36;100990.78;;;-2.03;100.00
43818;BME280;29868;47.360;18.984;2022-12-29T02:05:11;100979.38;;;-2.08;100.00
43818;BME280;29868;47.360;18.984;2022-12-29T02:07:39;100976.97;;;-1.95;100.00
43818;BME280;29868;47.360;18.984;2022-12-29T02:10:06;100985.09;;;-1.89;100.00
43818;BME280;29868;47.360;18.984;2022-12-29T02:12:32;100976.19;;;-1.94;100.00
43818;BME280;29868;47.360;18.984;2022-12-29T02:15:00;100974.31;;;-1.97;100.00
43818;BME280;29868;47.360;18.984;2022-12-29T02:29:06;100953.13;;;-1.74;100.00
43818;BME280;29868;47.360;18.984;2022-12-29T02:34:20;100944.16;;;-1.57;100.00
43818;BME280;29868;47.360;18.984;2022-12-29T02:37:19;100952.25;;;-1.62;100.00
43818;BME280;29868;47.360;18.984;2022-12-29T02:42:45;100947.59;;;-1.44;100.00
43818;BME280;29868;47.360;18.984;2022-12-29T02:45:31;100940.19;;;-1.41;100.00
43818;BME280;29868;47.360;18.984;2022-12-29T02:50:55;100938.09;;;-1.47;100.00
43818;BME280;29868;47.360;18.984;2022-12-29T02:53:23;100932.66;;;-1.40;100.00
43818;BME280;29868;47.360;18.984;2022-12-29T02:56:13;100931.97;;;-1.49;100.00
43818;BME280;29868;47.360;18.984;2022-12-29T02:58:38;100926.88;;;-1.49;100.00
43818;BME280;29868;47.360;18.984;2022-12-29T03:07:16;100931.31;;;-1.58;100.00
43818;BME280;29868;47.360;18.984;2022-12-29T03:09:50;100928.66;;;-1.48;100.00
43818;BME280;29868;47.360;18.984;2022-12-29T03:12:30;100920.34;;;-1.45;100.00
43818;BME280;29868;47.360;18.984;2022-12-29T03:15:30;100927.22;;;-1.44;100.00
43818;BME280;29868;47.360;18.984;2022-12-29T03:18:28;100921.78;;;-1.49;100.00
43818;BME280;29868;47.360;18.984;2022-12-29T03:21:17;100926.88;;;-1.49;100.00
43818;BME280;29868;47.360;18.984;2022-12-29T03:23:46;100921.00;;;-1.60;100.00
43818;BME280;29868;47.360;18.984;2022-12-29T03:26:15;100920.13;;;-1.49;100.00
43818;BME280;29868;47.360;18.984;2022-12-29T03:28:47;100921.22;;;-1.45;100.00
43818;BME280;29868;47.360;18.984;2022-12-29T03:31:16;100909.50;;;-1.43;100.00
43818;BME280;29868;47.360;18.984;2022-12-29T03:33:43;100915.91;;;-1.48;100.00
43818;BME280;29868;47.360;18.984;2022-12-29T03:36:12;100909.16;;;-1.59;100.00
43818;BME280;29868;47.360;18.984;2022-12-29T03:38:46;100915.25;;;-1.57;100.00
43818;BME280;29868;47.360;18.984;2022-12-29T03:41:18;100911.03;;;-1.57;100.00
43818;BME280;29868;47.360;18.984;2022-12-29T03:43:45;100907.06;;;-1.53;100.00
43818;BME280;29868;47.360;18.984;2022-12-29T03:46:11;100908.63;;;-1.55;100.00
43818;BME280;29868;47.360;18.984;2022-12-29T03:48:37;100904.84;;;-1.60;100.00
43818;BME280;29868;47.360;18.984;2022-12-29T03:51:02;100898.63;;;-1.52;100.00
43818;BME280;29868;47.360;18.984;2022-12-29T03:53:27;100891.53;;;-1.56;100.00
43818;BME280;29868;47.360;18.984;2022-12-29T03:55:53;100902.84;;;-1.64;100.00
43818;BME280;29868;47.360;18.984;2022-12-29T03:58:18;100903.72;;;-1.64;100.00
43818;BME280;29868;47.360;18.984;2022-12-29T04:00:44;100899.09;;;-1.69;100.00
43818;BME280;29868;47.360;18.984;2022-12-29T04:03:09;100903.50;;;-1.67;100.00
43818;BME280;29868;47.360;18.984;2022-12-29T04:05:35;100910.81;;;-1.72;100.00
43818;BME280;29868;47.360;18.984;2022-12-29T04:08:00;100902.84;;;-1.64;100.00
43818;BME280;29868;47.360;18.984;2022-12-29T04:10:25;100901.50;;;-1.59;100.00
43818;BME280;29868;47.360;18.984;2022-12-29T04:12:51;100905.38;;;-1.53;100.00
43818;BME280;29868;47.360;18.984;2022-12-29T04:15:16;100911.72;;;-1.48;100.00
43818;BME280;29868;47.360;18.984;2022-12-29T04:17:42;100913.50;;;-1.47;100.00
43818;BME280;29868;47.360;18.984;2022-12-29T04:20:08;100914.94;;;-1.50;100.00
43818;BME280;29868;47.360;18.984;2022-12-29T04:23:02;100904.19;;;-1.46;100.00
43818;BME280;29868;47.360;18.984;2022-12-29T04:25:28;100913.91;;;-1.52;100.00
43818;BME280;29868;47.360;18.984;2022-12-29T04:27:54;100914.03;;;-1.39;100.00
43818;BME280;29868;47.360;18.984;2022-12-29T04:30:19;100911.03;;;-1.45;100.00
43818;BME280;29868;47.360;18.984;2022-12-29T04:32:45;100915.34;;;-1.44;100.00
43818;BME280;29868;47.360;18.984;2022-12-29T04:35:10;100914.16;;;-1.49;100.00
43818;BME280;29868;47.360;18.984;2022-12-29T04:37:35;100914.16;;;-1.49;100.00
43818;BME280;29868;47.360;18.984;2022-12-29T04:40:01;100923.56;;;-1.36;100.00
43818;BME280;29868;47.360;18.984;2022-12-29T04:42:26;100917.91;;;-1.44;100.00
43818;BME280;29868;47.360;18.984;2022-12-29T04:44:51;100911.50;;;-1.39;100.00
43818;BME280;29868;47.360;18.984;2022-12-29T04:47:17;100918.69;;;-1.33;100.00
43818;BME280;29868;47.360;18.984;2022-12-29T04:49:42;100911.03;;;-1.33;100.00
43818;BME280;29868;47.360;18.984;2022-12-29T04:52:08;100915.38;;;-1.32;100.00
43818;BME280;29868;47.360;18.984;2022-12-29T04:54:33;100898.63;;;-1.29;100.00
43818;BME280;29868;47.360;18.984;2022-12-29T04:56:59;100897.06;;;-1.27;100.00
43818;BME280;29868;47.360;18.984;2022-12-29T04:59:24;100905.28;;;-1.31;100.00
43818;BME280;29868;47.360;18.984;2022-12-29T05:01:50;100907.50;;;-1.35;100.00
43818;BME280;29868;47.360;18.984;2022-12-29T05:04:15;100910.59;;;-1.39;100.00
43818;BME280;29868;47.360;18.984;2022-12-29T05:06:40;100891.44;;;-1.34;100.00
43818;BME280;29868;47.360;18.984;2022-12-29T05:09:06;100895.75;;;-1.33;100.00
43818;BME280;29868;47.360;18.984;2022-12-29T05:11:31;100896.09;;;-1.29;100.00
43818;BME280;29868;47.360;18.984;2022-12-29T05:13:57;100895.75;;;-1.45;100.00
43818;BME280;29868;47.360;18.984;2022-12-29T05:16:22;100904.81;;;-1.37;100.00
43818;BME280;29868;47.360;18.984;2022-12-29T05:18:47;100896.31;;;-1.37;100.00
43818;BME280;29868;47.360;18.984;2022-12-29T05:21:13;100899.84;;;-1.35;100.00
43818;BME280;29868;47.360;18.984;2022-12-29T05:23:38;100911.81;;;-1.34;100.00
43818;BME280;29868;47.360;18.984;2022-12-29T05:26:04;100902.16;;;-1.27;100.00
43818;BME280;29868;47.360;18.984;2022-12-29T05:28:29;100900.19;;;-1.42;100.00
43818;BME280;29868;47.360;18.984;2022-12-29T05:30:54;100903.84;;;-1.27;100.00
43818;BME280;29868;47.360;18.984;2022-12-29T05:33:20;100901.72;;;-1.33;100.00
43818;BME280;29868;47.360;18.984;2022-12-29T05:35:45;100897.41;;;-1.34;100.00
43818;BME280;29868;47.360;18.984;2022-12-29T05:38:11;100897.31;;;-1.35;100.00
43818;BME280;29868;47.360;18.984;2022-12-29T05:40:36;100884.03;;;-1.43;100.00
43818;BME280;29868;47.360;18.984;2022-12-29T05:43:02;100892.88;;;-1.38;100.00
43818;BME280;29868;47.360;18.984;2022-12-29T05:45:27;100881.13;;;-1.36;100.00
43818;BME280;29868;47.360;18.984;2022-12-29T05:47:53;100877.13;;;-1.44;100.00
43818;BME280;29868;47.360;18.984;2022-12-29T05:50:18;100888.78;;;-1.36;100.00
43818;BME280;29868;47.360;18.984;2022-12-29T05:52:44;100892.00;;;-1.38;100.00
43818;BME280;29868;47.360;18.984;2022-12-29T05:55:09;100890.44;;;-1.36;100.00
43818;BME280;29868;47.360;18.984;2022-12-29T05:57:35;100885.44;;;-1.35;100.00
43818;BME280;29868;47.360;18.984;2022-12-29T06:00:01;100878.25;;;-1.40;100.00
43818;BME280;29868;47.360;18.984;2022-12-29T06:02:27;100879.69;;;-1.44;100.00
43818;BME280;29868;47.360;18.984;2022-12-29T06:04:52;100881.22;;;-1.34;100.00
43818;BME280;29868;47.360;18.984;2022-12-29T06:07:17;100872.16;;;-1.31;100.00
43818;BME280;29868;47.360;18.984;2022-12-29T06:09:43;100880.56;;;-1.32;100.00
43818;BME280;29868;47.360;18.984;2022-12-29T06:12:08;100877.81;;;-1.35;100.00
43818;BME280;29868;47.360;18.984;2022-12-29T06:14:33;100876.91;;;-1.35;100.00
43818;BME280;29868;47.360;18.984;2022-12-29T06:16:59;100876.59;;;-1.40;100.00
43818;BME280;29868;47.360;18.984;2022-12-29T06:19:25;100877.91;;;-1.33;100.00
43818;BME280;29868;47.360;18.984;2022-12-29T06:21:50;100885.78;;;-1.30;100.00
43818;BME280;29868;47.360;18.984;2022-12-29T06:24:17;100879.53;;;-1.22;100.00
43818;BME280;29868;47.360;18.984;2022-12-29T06:26:43;100890.09;;;-1.29;100.00
43818;BME280;29868;47.360;18.984;2022-12-29T06:29:08;100891.31;;;-1.24;100.00
43818;BME280;29868;47.360;18.984;2022-12-29T06:31:34;100895.09;;;-1.31;100.00
43818;BME280;29868;47.360;18.984;2022-12-29T06:33:59;100899.94;;;-1.22;100.00
43818;BME280;29868;47.360;18.984;2022-12-29T06:36:24;100888.44;;;-1.29;100.00
43818;BME280;29868;47.360;18.984;2022-12-29T06:38:50;100889.97;;;-1.31;100.00
43818;BME280;29868;47.360;18.984;2022-12-29T06:41:18;100894.09;;;-1.21;100.00
43818;BME280;29868;47.360;18.984;2022-12-29T06:43:43;100896.38;;;-1.12;100.00
43818;BME280;29868;47.360;18.984;2022-12-29T06:46:09;100898.72;;;-1.15;100.00
43818;BME280;29868;47.360;18.984;2022-12-29T06:48:34;100897.19;;;-1.13;100.00
43818;BME280;29868;47.360;18.984;2022-12-29T06:50:59;100904.69;;;-1.15;100.00
43818;BME280;29868;47.360;18.984;2022-12-29T06:53:25;100904.06;;;-1.24;100.00
43818;BME280;29868;47.360;18.984;2022-12-29T06:55:50;100907.78;;;-1.07;100.00
43818;BME280;29868;47.360;18.984;2022-12-29T06:58:16;100909.34;;;-0.98;100.00
43818;BME280;29868;47.360;18.984;2022-12-29T07:00:41;100918.22;;;-1.04;100.00
43818;BME280;29868;47.360;18.984;2022-12-29T07:03:07;100913.91;;;-1.05;100.00
43818;BME280;29868;47.360;18.984;2022-12-29T07:05:32;100925.50;;;-0.97;100.00
43818;BME280;29868;47.360;18.984;2022-12-29T07:07:58;100915.94;;;-0.88;100.00
43818;BME280;29868;47.360;18.984;2022-12-29T07:10:23;100917.22;;;-0.94;100.00
43818;BME280;29868;47.360;18.984;2022-12-29T07:12:49;100939.47;;;-0.92;100.00
43818;BME280;29868;47.360;18.984;2022-12-29T07:15:15;100938.00;;;-0.77;100.00
43818;BME280;29868;47.360;18.984;2022-12-29T07:17:40;100927.31;;;-0.59;100.00
43818;BME280;29868;47.360;18.984;2022-12-29T07:20:07;100919.50;;;-0.49;100.00
43818;BME280;29868;47.360;18.984;2022-12-29T07:22:32;100923.03;;;-0.47;100.00
43818;BME280;29868;47.360;18.984;2022-12-29T07:24:58;100912.88;;;-0.59;100.00
43818;BME280;29868;47.360;18.984;2022-12-29T07:27:23;100919.91;;;-0.68;100.00
43818;BME280;29868;47.360;18.984;2022-12-29T07:29:48;100923.16;;;-0.57;100.00
43818;BME280;29868;47.360;18.984;2022-12-29T07:32:14;100923.47;;;-0.41;100.00
43818;BME280;29868;47.360;18.984;2022-12-29T07:34:39;100934.81;;;-0.49;100.00
43818;BME280;29868;47.360;18.984;2022-12-29T07:37:05;100928.97;;;-0.35;100.00
43818;BME280;29868;47.360;18.984;2022-12-29T07:39:31;100930.34;;;-0.40;100.00
43818;BME280;29868;47.360;18.984;2022-12-29T07:41:56;100921.53;;;-0.32;100.00
43818;BME280;29868;47.360;18.984;2022-12-29T07:44:22;100926.06;;;-0.28;100.00
43818;BME280;29868;47.360;18.984;2022-12-29T07:46:47;100927.56;;;-0.18;100.00
43818;BME280;29868;47.360;18.984;2022-12-29T07:49:12;100927.38;;;-0.08;100.00
43818;BME280;29868;47.360;18.984;2022-12-29T07:51:38;100925.53;;;-0.10;100.00
43818;BME280;29868;47.360;18.984;2022-12-29T07:54:03;100937.56;;;0.04;100.00
43818;BME280;29868;47.360;18.984;2022-12-29T07:56:29;100931.53;;;0.04;100.00
43818;BME280;29868;47.360;18.984;2022-12-29T07:58:54;100933.34;;;0.18;100.00
43818;BME280;29868;47.360;18.984;2022-12-29T08:01:19;100924.97;;;0.07;100.00
43818;BME280;29868;47.360;18.984;2022-12-29T08:03:46;100923.41;;;0.09;100.00
43818;BME280;29868;47.360;18.984;2022-12-29T08:06:12;100927.06;;;0.13;100.00
43818;BME280;29868;47.360;18.984;2022-12-29T08:08:37;100928.88;;;0.27;100.00
43818;BME280;29868;47.360;18.984;2022-12-29T08:11:03;100930.53;;;0.40;100.00
43818;BME280;29868;47.360;18.984;2022-12-29T08:13:29;100924.06;;;0.58;100.00
43818;BME280;29868;47.360;18.984;2022-12-29T08:15:54;100922.28;;;0.70;100.00
43818;BME280;29868;47.360;18.984;2022-12-29T08:18:20;100919.66;;;0.69;100.00
43818;BME280;29868;47.360;18.984;2022-12-29T08:20:45;100912.47;;;0.77;100.00
43818;BME280;29868;47.360;18.984;2022-12-29T08:23:10;100915.63;;;0.72;100.00
43818;BME280;29868;47.360;18.984;2022-12-29T08:25:36;100914.75;;;0.72;100.00
43818;BME280;29868;47.360;18.984;2022-12-29T08:28:01;100909.53;;;0.84;100.00
43818;BME280;29868;47.360;18.984;2022-12-29T08:30:27;100920.22;;;0.78;100.00
43818;BME280;29868;47.360;18.984;2022-12-29T08:32:52;100913.66;;;0.68;100.00
43818;BME280;29868;47.360;18.984;2022-12-29T08:35:17;100912.47;;;0.77;100.00
43818;BME280;29868;47.360;18.984;2022-12-29T08:37:43;100905.19;;;0.56;100.00
43818;BME280;29868;47.360;18.984;2022-12-29T08:40:09;100913.63;;;0.82;100.00
43818;BME280;29868;47.360;18.984;2022-12-29T08:42:34;100899.78;;;0.78;100.00
43818;BME280;29868;47.360;18.984;2022-12-29T08:45:00;100908.31;;;0.92;100.00
43818;BME280;29868;47.360;18.984;2022-12-29T08:47:26;100900.00;;;1.23;100.00
43818;BME280;29868;47.360;18.984;2022-12-29T08:49:51;100899.00;;;1.20;100.00
43818;BME280;29868;47.360;18.984;2022-12-29T08:52:17;100900.00;;;1.09;100.00
43818;BME280;29868;47.360;18.984;2022-12-29T08:54:43;100900.72;;;0.93;100.00
43818;BME280;29868;47.360;18.984;2022-12-29T08:57:08;100902.50;;;0.94;100.00
43818;BME280;29868;47.360;18.984;2022-12-29T08:59:34;100896.56;;;1.09;100.00
43818;BME280;29868;47.360;18.984;2022-12-29T09:01:59;100900.00;;;1.23;100.00
43818;BME280;29868;47.360;18.984;2022-12-29T09:04:27;100889.75;;;1.23;100.00
43818;BME280;29868;47.360;18.984;2022-12-29T09:06:53;100901.00;;;1.11;100.00
43818;BME280;29868;47.360;18.984;2022-12-29T09:09:18;100895.38;;;1.17;100.00
43818;BME280;29868;47.360;18.984;2022-12-29T09:11:44;100889.69;;;1.08;100.00
43818;BME280;29868;47.360;18.984;2022-12-29T09:14:10;100888.81;;;1.07;100.00
43818;BME280;29868;47.360;18.984;2022-12-29T09:16:36;100892.31;;;1.23;100.00
43818;BME280;29868;47.360;18.984;2022-12-29T09:19:02;100892.84;;;1.32;100.00
43818;BME280;29868;47.360;18.984;2022-12-29T09:21:28;100895.84;;;1.53;100.00
43818;BME280;29868;47.360;18.984;2022-12-29T09:23:53;100883.50;;;1.32;100.00
43818;BME280;29868;47.360;18.984;2022-12-29T09:26:19;100892.44;;;1.39;100.00
43818;BME280;29868;47.360;18.984;2022-12-29T09:28:44;100892.69;;;1.57;100.00
43818;BME280;29868;47.360;18.984;2022-12-29T09:31:10;100880.91;;;1.45;100.00
43818;BME280;29868;47.360;18.984;2022-12-29T09:33:35;100879.22;;;1.46;100.00
43818;BME280;29868;47.360;18.984;2022-12-29T09:36:01;100878.81;;;1.53;100.00
43818;BME280;29868;47.360;18.984;2022-12-29T09:38:27;100868.50;;;1.66;100.00
43818;BME280;29868;47.360;18.984;2022-12-29T09:40:57;100869.38;;;1.52;100.00
43818;BME280;29868;47.360;18.984;2022-12-29T09:46:28;100871.81;;;1.93;100.00
43818;BME280;29868;47.360;18.984;2022-12-29T09:51:43;100854.81;;;1.81;100.00
43818;BME280;29868;47.360;18.984;2022-12-29T09:56:47;100853.31;;;1.84;100.00
43818;BME280;29868;47.360;18.984;2022-12-29T09:59:17;100851.56;;;1.98;100.00
43818;BME280;29868;47.360;18.984;2022-12-29T10:01:57;100857.59;;;2.13;100.00
43818;BME280;29868;47.360;18.984;2022-12-29T10:04:28;100837.34;;;2.18;100.00
43818;BME280;29868;47.360;18.984;2022-12-29T10:07:10;100840.88;;;2.20;100.00
43818;BME280;29868;47.360;18.984;2022-12-29T10:09:49;100826.41;;;2.06;100.00
43818;BME280;29868;47.360;18.984;2022-12-29T10:12:45;100833.53;;;2.11;100.00
43818;BME280;29868;47.360;18.984;2022-12-29T10:15:29;100830.63;;;2.20;100.00
43818;BME280;29868;47.360;18.984;2022-12-29T10:23:42;100824.72;;;2.06;100.00
43818;BME280;29868;47.360;18.984;2022-12-29T10:26:40;100833.22;;;1.90;100.00
43818;BME280;29868;47.360;18.984;2022-12-29T10:29:17;100823.28;;;2.11;100.00
43818;BME280;29868;47.360;18.984;2022-12-29T10:31:55;100813.13;;;2.13;100.00
43818;BME280;29868;47.360;18.984;2022-12-29T10:34:31;100814.69;;;2.26;100.00
43818;BME280;29868;47.360;18.984;2022-12-29T10:37:05;100812.31;;;2.29;100.00
43818;BME280;29868;47.360;18.984;2022-12-29T10:39:44;100816.00;;;2.34;100.00
43818;BME280;29868;47.360;18.984;2022-12-29T10:42:17;100818.53;;;2.49;100.00
43818;BME280;29868;47.360;18.984;2022-12-29T10:44:46;100813.63;;;2.37;100.00
43818;BME280;29868;47.360;18.984;2022-12-29T10:47:35;100809.72;;;2.43;100.00
43818;BME280;29868;47.360;18.984;2022-12-29T10:50:03;100805.00;;;2.51;100.00
43818;BME280;29868;47.360;18.984;2022-12-29T10:52:30;100811.38;;;2.58;100.00
43818;BME280;29868;47.360;18.984;2022-12-29T10:55:05;100813.09;;;2.74;100.00
43818;BME280;29868;47.360;18.984;2022-12-29T10:57:45;100800.47;;;2.62;100.00
43818;BME280;29868;47.360;18.984;2022-12-29T11:07:55;100787.91;;;2.83;100.00
43818;BME280;29868;47.360;18.984;2022-12-29T11:13:00;100778.44;;;2.82;100.00
43818;BME280;29868;47.360;18.984;2022-12-29T11:15:26;100774.84;;;2.95;100.00
43818;BME280;29868;47.360;18.984;2022-12-29T11:17:56;100779.66;;;3.05;100.00
43818;BME280;29868;47.360;18.984;2022-12-29T11:22:53;100782.78;;;2.83;100.00
43818;BME280;29868;47.360;18.984;2022-12-29T11:25:19;100784.16;;;2.92;100.00
43818;BME280;29868;47.360;18.984;2022-12-29T11:30:30;100779.66;;;3.05;100.00
43818;BME280;29868;47.360;18.984;2022-12-29T11:32:56;100778.28;;;2.95;100.00
43818;BME280;29868;47.360;18.984;2022-12-29T11:35:39;100771.16;;;3.22;100.00
43818;BME280;29868;47.360;18.984;2022-12-29T11:38:11;100769.63;;;3.26;100.00
43818;BME280;29868;47.360;18.984;2022-12-29T11:40:42;100765.91;;;3.37;100.00
43818;BME280;29868;47.360;18.984;2022-12-29T11:43:50;100770.72;;;3.47;100.00
43818;BME280;29868;47.360;18.984;2022-12-29T11:46:19;100772.19;;;3.42;100.00
43818;BME280;29868;47.360;18.984;2022-12-29T11:48:46;100768.31;;;3.50;100.00
43818;BME280;29868;47.360;18.984;2022-12-29T11:51:13;100764.00;;;3.67;100.00
43818;BME280;29868;47.360;18.984;2022-12-29T11:53:48;100750.28;;;3.66;100.00
43818;BME280;29868;47.360;18.984;2022-12-29T11:56:16;100745.63;;;3.76;100.00
43818;BME280;29868;47.360;18.984;2022-12-29T11:58:43;100737.88;;;3.58;100.00
43818;BME280;29868;47.360;18.984;2022-12-29T12:01:36;100743.91;;;3.76;100.00
43818;BME280;29868;47.360;18.984;2022-12-29T12:04:07;100739.81;;;3.80;100.00
43818;BME280;29868;47.360;18.984;2022-12-29T12:06:40;100745.50;;;3.74;100.00
43818;BME280;29868;47.360;18.984;2022-12-29T12:09:31;100749.13;;;3.96;100.00
43818;BME280;29868;47.360;18.984;2022-12-29T12:11:59;100755.06;;;3.77;100.00
43818;BME280;29868;47.360;18.984;2022-12-29T12:14:38;100753.91;;;3.88;100.00
43818;BME280;29868;47.360;18.984;2022-12-29T12:17:20;100748.41;;;3.98;100.00
43818;BME280;29868;47.360;18.984;2022-12-29T12:22:35;100745.59;;;4.11;100.00
43818;BME280;29868;47.360;18.984;2022-12-29T12:25:09;100743.41;;;4.01;100.00
43818;BME280;29868;47.360;18.984;2022-12-29T12:30:22;100737.06;;;4.12;100.00
43818;BME280;29868;47.360;18.984;2022-12-29T12:35:44;100729.53;;;4.15;100.00
43818;BME280;29868;47.360;18.984;2022-12-29T12:38:22;100725.91;;;4.12;100.00
43818;BME280;29868;47.360;18.984;2022-12-29T12:41:06;100719.69;;;4.07;100.00
43818;BME280;29868;47.360;18.984;2022-12-29T12:43:54;100727.63;;;4.11;100.00
43818;BME280;29868;47.360;18.984;2022-12-29T12:46:49;100711.47;;;4.14;100.00
43818;BME280;29868;47.360;18.984;2022-12-29T12:50:13;100705.72;;;4.20;100.00
43818;BME280;29868;47.360;18.984;2022-12-29T12:52:38;100697.31;;;4.24;100.00
43818;BME280;29868;47.360;18.984;2022-12-29T12:55:39;100699.47;;;4.14;100.00
43818;BME280;29868;47.360;18.984;2022-12-29T12:58:18;100698.50;;;4.12;100.00
43818;BME280;29868;47.360;18.984;2022-12-29T13:00:54;100704.69;;;4.16;100.00
43818;BME280;29868;47.360;18.984;2022-12-29T13:09:37;100716.00;;;4.20;100.00
43818;BME280;29868;47.360;18.984;2022-12-29T13:17:36;100711.09;;;4.06;100.00
43818;BME280;29868;47.360;18.984;2022-12-29T13:30:12;100722.06;;;4.02;100.00
43818;BME280;29868;47.360;18.984;2022-12-29T13:35:48;100722.06;;;4.02;100.00
43818;BME280;29868;47.360;18.984;2022-12-29T13:40:53;100717.94;;;3.88;100.00
43818;BME280;29868;47.360;18.984;2022-12-29T13:43:21;100731.16;;;3.96;100.00
43818;BME280;29868;47.360;18.984;2022-12-29T13:45:57;100727.34;;;3.87;100.00
43818;BME280;29868;47.360;18.984;2022-12-29T13:51:02;100725.72;;;3.72;100.00
43818;BME280;29868;47.360;18.984;2022-12-29T13:56:43;100726.88;;;3.60;100.00
43818;BME280;29868;47.360;18.984;2022-12-29T13:59:29;100726.56;;;3.54;100.00
43818;BME280;29868;47.360;18.984;2022-12-29T14:04:35;100725.72;;;3.37;100.00
43818;BME280;29868;47.360;18.984;2022-12-29T14:07:11;100722.13;;;3.34;100.00
43818;BME280;29868;47.360;18.984;2022-12-29T14:09:52;100719.88;;;3.24;100.00
43818;BME280;29868;47.360;18.984;2022-12-29T14:12:35;100724.97;;;3.22;100.00
43818;BME280;29868;47.360;18.984;2022-12-29T14:15:15;100721.34;;;3.19;100.00
43818;BME280;29868;47.360;18.984;2022-12-29T14:17:42;100725.75;;;3.21;100.00
43818;BME280;29868;47.360;18.984;2022-12-29T14:20:20;100717.09;;;3.03;100.00
43818;BME280;29868;47.360;18.984;2022-12-29T14:25:54;100736.06;;;2.88;100.00
43818;BME280;29868;47.360;18.984;2022-12-29T14:28:28;100729.88;;;2.85;100.00
43818;BME280;29868;47.360;18.984;2022-12-29T14:30:56;100727.44;;;2.72;100.00
43818;BME280;29868;47.360;18.984;2022-12-29T14:33:22;100729.06;;;2.70;100.00